Time;durP1;ratioP1;P1;durP2;ratioP2;P2;SDS_P1;SDS_P2;PMS_P1;PMS_P2;Temp;Humidity;BMP_temperature;BMP_pressure;BME280_temperature;BME280_humidity;BME280_pressure;Samples;Min_cycle;Max_cycle;Signal;HPM_P1;HPM_P2
2022/03/19 00:02:22;;;;;;;27.60;12.48;;;4.70;99.90;;;;;;4999316;28;20213;-70
2022/03/19 00:04:51;;;;;;;22.55;13.32;;;4.60;99.90;;;;;;4998983;28;20210;-69
2022/03/19 00:07:19;;;;;;;29.63;11.85;;;4.60;99.90;;;;;;4998990;28;20206;-68
2022/03/19 00:09:48;;;;;;;24.27;11.90;;;4.60;99.90;;;;;;4999010;28;20226;-68
2022/03/19 00:12:16;;;;;;;17.23;10.13;;;4.70;99.90;;;;;;4998570;28;20207;-68
2022/03/19 00:14:44;;;;;;;19.30;10.90;;;4.70;99.90;;;;;;4998385;28;20214;-67
2022/03/19 00:17:12;;;;;;;20.88;10.73;;;4.70;99.90;;;;;;4998547;28;20213;-68
2022/03/19 00:19:40;;;;;;;18.98;9.10;;;4.70;99.90;;;;;;4999555;28;20218;-68
2022/03/19 00:22:09;;;;;;;17.42;8.45;;;4.70;99.90;;;;;;5000082;28;20230;-69
2022/03/19 00:24:37;;;;;;;19.60;10.25;;;4.70;99.90;;;;;;4997808;28;20203;-69
2022/03/19 00:27:06;;;;;;;15.05;8.20;;;4.70;99.90;;;;;;4998466;28;20298;-70
2022/03/19 00:29:34;;;;;;;15.38;7.50;;;4.60;99.90;;;;;;4998817;28;20219;-69
2022/03/19 00:32:02;;;;;;;15.77;7.45;;;4.60;99.90;;;;;;5000107;28;20203;-70
2022/03/19 00:34:31;;;;;;;19.75;8.80;;;4.60;99.90;;;;;;4999759;28;20696;-69
2022/03/19 00:36:59;;;;;;;22.92;8.30;;;4.50;99.90;;;;;;5000533;28;20758;-69
2022/03/19 00:39:27;;;;;;;20.45;8.20;;;4.40;99.90;;;;;;4999442;28;20203;-69
2022/03/19 00:41:55;;;;;;;22.67;8.90;;;4.40;99.90;;;;;;4999041;28;20222;-70
2022/03/19 00:44:24;;;;;;;21.92;9.45;;;4.40;99.90;;;;;;4999397;28;20205;-69
2022/03/19 00:46:52;;;;;;;17.98;7.78;;;4.50;99.90;;;;;;4999335;28;20761;-69
2022/03/19 00:49:20;;;;;;;15.90;8.00;;;4.50;99.90;;;;;;4998329;28;20198;-69
2022/03/19 00:51:48;;;;;;;17.05;7.55;;;4.40;99.90;;;;;;4998323;28;20201;-69
2022/03/19 00:54:16;;;;;;;18.63;7.97;;;4.40;99.90;;;;;;4998601;28;20211;-71
2022/03/19 00:56:46;;;;;;;21.98;7.05;;;4.30;99.90;;;;;;4997803;28;20214;-70
2022/03/19 00:59:14;;;;;;;12.52;6.78;;;4.30;99.90;;;;;;4998454;28;20281;-71
2022/03/19 01:01:43;;;;;;;15.20;7.28;;;4.30;99.90;;;;;;5010745;28;20260;-71
2022/03/19 01:04:11;;;;;;;15.60;6.35;;;4.30;99.90;;;;;;5018018;28;20238;-71
2022/03/19 01:06:39;;;;;;;12.25;6.72;;;4.30;99.90;;;;;;5017477;28;20632;-71
2022/03/19 01:09:07;;;;;;;14.15;6.85;;;4.20;99.90;;;;;;5018119;28;20206;-71
2022/03/19 01:11:35;;;;;;;11.93;6.60;;;4.20;99.90;;;;;;5018057;28;20206;-71
2022/03/19 01:14:02;;;;;;;14.85;5.78;;;4.20;99.90;;;;;;5017411;28;20202;-71
2022/03/19 01:16:30;;;;;;;9.85;5.55;;;4.10;99.90;;;;;;5017310;28;20252;-71
2022/03/19 01:18:59;;;;;;;9.68;5.95;;;4.10;99.90;;;;;;5018295;28;20209;-71
2022/03/19 01:21:27;;;;;;;13.10;6.78;;;4.10;99.90;;;;;;5017614;28;20226;-71
2022/03/19 01:23:55;;;;;;;8.55;5.25;;;4.00;99.90;;;;;;5017888;28;20203;-70
2022/03/19 01:26:24;;;;;;;18.63;6.28;;;4.00;99.90;;;;;;5020472;28;20202;-71
2022/03/19 01:28:52;;;;;;;16.85;7.97;;;3.90;99.90;;;;;;5020071;28;20229;-71
2022/03/19 01:31:21;;;;;;;12.98;6.45;;;3.90;99.90;;;;;;5018798;28;20225;-68
2022/03/19 01:33:49;;;;;;;12.43;6.38;;;3.90;99.90;;;;;;5017104;28;20845;-70
2022/03/19 01:36:18;;;;;;;8.98;6.55;;;3.90;99.90;;;;;;5021594;28;20290;-71
2022/03/19 01:38:46;;;;;;;14.02;7.28;;;3.90;99.90;;;;;;5021293;28;20213;-70
2022/03/19 01:41:14;;;;;;;17.50;7.13;;;3.80;99.90;;;;;;5021209;28;20254;-70
2022/03/19 01:43:42;;;;;;;13.40;6.90;;;3.70;99.90;;;;;;5021272;28;20203;-70
2022/03/19 01:46:10;;;;;;;12.05;6.63;;;3.70;99.90;;;;;;5021274;28;20831;-70
2022/03/19 01:48:38;;;;;;;11.60;6.85;;;3.70;99.90;;;;;;5021067;28;20202;-71
2022/03/19 01:51:06;;;;;;;19.42;6.57;;;3.60;99.90;;;;;;5021188;28;20214;-70
2022/03/19 01:53:35;;;;;;;15.13;7.65;;;3.50;99.90;;;;;;5021129;28;20214;-68
2022/03/19 01:56:04;;;;;;;17.40;6.93;;;3.50;99.90;;;;;;5020570;28;20240;-68
2022/03/19 01:58:32;;;;;;;23.63;8.15;;;3.50;99.90;;;;;;5020741;28;20690;-65
2022/03/19 02:01:00;;;;;;;16.55;6.30;;;3.40;99.90;;;;;;5020697;28;20737;-65
2022/03/19 02:03:29;;;;;;;16.77;6.72;;;3.40;99.90;;;;;;5020077;28;20382;-66
2022/03/19 02:06:01;;;;;;;13.70;6.10;;;3.50;99.90;;;;;;5016673;28;20199;-65
2022/03/19 02:08:29;;;;;;;11.40;5.90;;;3.50;99.90;;;;;;5010895;28;20228;-65
2022/03/19 02:10:58;;;;;;;13.07;8.20;;;3.50;99.90;;;;;;5019945;28;20853;-65
2022/03/19 02:13:26;;;;;;;12.93;5.68;;;3.50;99.90;;;;;;5019322;28;20203;-65
2022/03/19 02:15:53;;;;;;;11.43;5.75;;;3.60;99.90;;;;;;5020896;28;20199;-64
2022/03/19 02:18:21;;;;;;;11.85;5.63;;;3.50;99.90;;;;;;5020005;28;20285;-65
2022/03/19 02:20:51;;;;;;;13.55;7.28;;;3.50;99.90;;;;;;5018645;28;20222;-65
2022/03/19 02:26:09;;;;;;;13.80;5.57;;;3.40;99.90;;;;;;5009119;28;20230;-64
2022/03/19 02:28:37;;;;;;;9.73;5.63;;;3.40;99.90;;;;;;5014301;28;20213;-65
2022/03/19 02:31:05;;;;;;;14.68;6.28;;;3.30;99.90;;;;;;5019942;28;20225;-64
2022/03/19 02:33:33;;;;;;;7.07;4.55;;;3.30;99.90;;;;;;5018196;28;20198;-64
2022/03/19 02:36:05;;;;;;;11.63;5.55;;;3.30;99.90;;;;;;5020302;28;20850;-66
2022/03/19 02:38:34;;;;;;;15.77;5.72;;;3.30;99.90;;;;;;5016494;28;20756;-66
2022/03/19 02:41:04;;;;;;;13.20;4.85;;;3.30;99.90;;;;;;5016336;28;20228;-68
2022/03/19 02:43:31;;;;;;;14.32;6.32;;;3.40;99.90;;;;;;5015337;28;20226;-67
2022/03/19 02:45:59;;;;;;;18.02;5.65;;;3.30;99.90;;;;;;5018946;28;20301;-67
2022/03/19 02:48:27;;;;;;;12.38;5.55;;;3.30;99.90;;;;;;5020385;28;20205;-67
2022/03/19 02:50:55;;;;;;;13.95;5.10;;;3.20;99.90;;;;;;5019556;28;20285;-68
2022/03/19 02:53:23;;;;;;;9.23;5.00;;;3.10;99.90;;;;;;5020411;28;20217;-67
2022/03/19 02:55:52;;;;;;;11.02;4.43;;;3.20;99.90;;;;;;5020349;28;20202;-68
2022/03/19 02:58:20;;;;;;;7.40;4.10;;;3.20;99.90;;;;;;5019922;28;20205;-67
2022/03/19 03:00:48;;;;;;;12.55;4.60;;;3.20;99.90;;;;;;5020509;28;20226;-67
2022/03/19 03:03:16;;;;;;;11.38;4.25;;;3.30;99.90;;;;;;5020919;28;20846;-67
2022/03/19 03:05:44;;;;;;;10.38;4.88;;;3.30;99.90;;;;;;5021389;28;20237;-68
2022/03/19 03:08:12;;;;;;;12.82;4.68;;;3.30;99.90;;;;;;5021972;28;20209;-67
2022/03/19 03:10:41;;;;;;;13.18;4.60;;;3.20;99.90;;;;;;5021513;28;20233;-68
2022/03/19 03:13:10;;;;;;;10.57;4.10;;;3.20;99.90;;;;;;5021591;28;20209;-69
2022/03/19 03:15:37;;;;;;;9.80;4.03;;;3.10;99.90;;;;;;5021059;28;20822;-68
2022/03/19 03:18:05;;;;;;;8.80;4.30;;;3.20;99.90;;;;;;5021205;28;20203;-69
2022/03/19 03:20:34;;;;;;;11.27;4.47;;;3.20;99.90;;;;;;5021536;28;20925;-69
2022/03/19 03:23:02;;;;;;;10.85;4.35;;;3.10;99.90;;;;;;5023392;28;20211;-69
2022/03/19 03:25:29;;;;;;;12.88;4.78;;;3.10;99.90;;;;;;5022266;28;20210;-68
2022/03/19 03:27:57;;;;;;;12.27;4.15;;;3.10;99.90;;;;;;5023785;28;20379;-68
2022/03/19 03:30:26;;;;;;;11.95;4.75;;;3.10;99.90;;;;;;5021828;28;20232;-68
2022/03/19 03:32:54;;;;;;;12.13;4.90;;;3.10;99.90;;;;;;5021529;28;20293;-68
2022/03/19 03:35:25;;;;;;;15.15;5.63;;;3.10;99.90;;;;;;5020097;28;20764;-69
2022/03/19 03:37:53;;;;;;;6.90;4.38;;;3.00;99.90;;;;;;5019986;28;20295;-68
2022/03/19 03:40:21;;;;;;;11.88;5.30;;;3.00;99.90;;;;;;5019373;28;20771;-69
2022/03/19 03:42:49;;;;;;;8.73;4.43;;;3.00;99.90;;;;;;5019590;28;20222;-70
2022/03/19 03:45:21;;;;;;;7.78;3.47;;;3.00;99.90;;;;;;5019384;28;20207;-69
2022/03/19 03:47:50;;;;;;;9.32;4.32;;;3.00;99.90;;;;;;5019788;28;20205;-69
2022/03/19 03:50:20;;;;;;;8.88;3.67;;;3.00;99.90;;;;;;5019431;28;20225;-68
2022/03/19 03:52:48;;;;;;;9.15;5.63;;;3.00;99.90;;;;;;5019537;28;20213;-68
2022/03/19 03:55:16;;;;;;;11.18;5.57;;;2.90;99.90;;;;;;5018888;28;20206;-67
2022/03/19 03:57:44;;;;;;;8.82;4.65;;;2.80;99.90;;;;;;5019051;28;20203;-69
2022/03/19 04:00:12;;;;;;;8.70;5.05;;;2.80;99.90;;;;;;5019294;28;20226;-69
2022/03/19 04:02:40;;;;;;;6.60;3.90;;;2.70;99.90;;;;;;5018485;28;20354;-70
2022/03/19 04:05:10;;;;;;;10.60;3.70;;;2.70;99.90;;;;;;5018719;28;20293;-69
2022/03/19 04:07:38;;;;;;;9.80;5.35;;;2.60;99.90;;;;;;5023439;28;20206;-67
2022/03/19 04:10:07;;;;;;;11.13;4.95;;;2.60;99.90;;;;;;5022208;28;20221;-70
2022/03/19 04:12:35;;;;;;;9.70;4.07;;;2.60;99.90;;;;;;5019620;28;20206;-73
2022/03/19 04:15:04;;;;;;;11.57;3.40;;;2.60;99.90;;;;;;5018119;28;20205;-70
2022/03/19 04:17:32;;;;;;;14.15;4.85;;;2.50;99.90;;;;;;5018826;28;20301;-68
2022/03/19 04:20:00;;;;;;;10.52;4.35;;;2.50;99.90;;;;;;5017937;28;20226;-70
2022/03/19 04:22:35;;;;;;;9.23;4.55;;;2.50;99.90;;;;;;5018484;28;20222;-70
2022/03/19 04:25:03;;;;;;;8.95;4.15;;;2.50;99.90;;;;;;5018180;28;20204;-69
2022/03/19 04:27:31;;;;;;;10.35;4.90;;;2.50;99.90;;;;;;5018405;28;20209;-69
2022/03/19 04:29:59;;;;;;;17.63;4.47;;;2.40;99.90;;;;;;5018094;28;20309;-69
2022/03/19 04:32:28;;;;;;;9.25;4.22;;;2.40;99.90;;;;;;5018307;28;20808;-69
2022/03/19 04:34:56;;;;;;;9.45;4.03;;;2.30;99.90;;;;;;5018700;28;20294;-69
2022/03/19 04:37:24;;;;;;;9.27;4.25;;;2.30;99.90;;;;;;5018907;28;20811;-69
2022/03/19 04:39:53;;;;;;;12.70;4.10;;;2.30;99.90;;;;;;5018909;28;20218;-68
2022/03/19 04:42:21;;;;;;;9.15;4.25;;;2.30;99.90;;;;;;5018654;28;20200;-69
2022/03/19 04:44:49;;;;;;;12.38;5.47;;;2.30;99.90;;;;;;5018503;28;20202;-69
2022/03/19 04:47:16;;;;;;;9.00;4.35;;;2.30;99.90;;;;;;5018632;28;20202;-69
2022/03/19 04:49:44;;;;;;;11.10;4.68;;;2.20;99.90;;;;;;5018849;28;20230;-69
2022/03/19 04:52:13;;;;;;;12.27;4.35;;;2.20;99.90;;;;;;5019100;28;20207;-69
2022/03/19 04:54:41;;;;;;;10.10;3.83;;;2.20;99.90;;;;;;5018445;28;20202;-70
2022/03/19 04:57:10;;;;;;;6.53;3.05;;;2.20;99.90;;;;;;5018287;28;20209;-71
2022/03/19 04:59:38;;;;;;;14.20;3.88;;;2.20;99.90;;;;;;5020016;28;20222;-71
2022/03/19 05:02:06;;;;;;;13.65;5.10;;;2.10;99.90;;;;;;5018853;28;20801;-71
2022/03/19 05:04:34;;;;;;;16.80;4.68;;;2.10;99.90;;;;;;5016426;28;20226;-72
2022/03/19 05:07:02;;;;;;;13.98;4.25;;;2.10;99.90;;;;;;5013743;28;20198;-73
2022/03/19 05:12:35;;;;;;;8.95;4.00;;;2.10;99.90;;;;;;4979823;28;20203;-72
2022/03/19 05:15:03;;;;;;;5.32;3.65;;;2.00;99.90;;;;;;4979298;28;20844;-71
2022/03/19 05:17:30;;;;;;;16.83;4.97;;;2.00;99.90;;;;;;5016362;28;20674;-70
2022/03/19 05:19:58;;;;;;;10.52;4.28;;;2.00;99.90;;;;;;5022325;28;20226;-69
2022/03/19 05:22:29;;;;;;;19.98;5.28;;;1.90;99.90;;;;;;5021980;28;20210;-68
2022/03/19 05:24:57;;;;;;;15.40;4.35;;;1.90;99.90;;;;;;5021808;28;20222;-69
2022/03/19 05:27:25;;;;;;;9.63;4.32;;;1.80;99.90;;;;;;5022057;28;20712;-70
2022/03/19 05:29:54;;;;;;;11.88;5.03;;;1.80;99.90;;;;;;5022467;28;20222;-71
2022/03/19 05:32:23;;;;;;;15.43;5.03;;;1.90;99.90;;;;;;5023205;28;20203;-70
2022/03/19 05:34:51;;;;;;;12.73;5.30;;;1.80;99.90;;;;;;5023116;28;20209;-70
2022/03/19 05:37:23;;;;;;;11.27;3.85;;;1.80;99.90;;;;;;5022638;28;20207;-69
2022/03/19 05:39:54;;;;;;;14.55;4.60;;;1.80;99.90;;;;;;5022279;28;20218;-70
2022/03/19 05:42:22;;;;;;;15.60;4.80;;;1.80;99.90;;;;;;5021701;28;20214;-70
2022/03/19 05:44:50;;;;;;;13.40;4.95;;;1.80;99.90;;;;;;5022099;28;20732;-70
2022/03/19 05:47:19;;;;;;;10.07;4.13;;;1.80;99.90;;;;;;5015645;28;20206;-71
2022/03/19 05:49:47;;;;;;;9.40;4.65;;;1.80;99.90;;;;;;5020626;28;20230;-72
2022/03/19 05:52:16;;;;;;;13.05;4.75;;;1.80;99.90;;;;;;5019704;28;20207;-69
2022/03/19 05:54:44;;;;;;;12.43;4.93;;;1.80;99.90;;;;;;5022114;28;20268;-70
2022/03/19 05:57:12;;;;;;;8.20;4.40;;;1.80;99.90;;;;;;5019595;28;20289;-69
2022/03/19 05:59:39;;;;;;;6.97;3.60;;;1.80;99.90;;;;;;5014797;28;20800;-69
2022/03/19 06:02:07;;;;;;;9.48;4.03;;;1.80;99.90;;;;;;5012942;28;20290;-70
2022/03/19 06:04:37;;;;;;;14.07;5.47;;;1.80;99.90;;;;;;5018470;28;20225;-69
2022/03/19 06:07:05;;;;;;;11.88;4.50;;;1.80;99.90;;;;;;5021620;28;20245;-69
2022/03/19 06:09:33;;;;;;;8.68;4.43;;;1.80;99.90;;;;;;5020866;28;20312;-69
2022/03/19 06:12:01;;;;;;;7.97;4.00;;;1.90;99.90;;;;;;5020965;28;20212;-69
2022/03/19 06:14:29;;;;;;;7.90;4.32;;;1.90;99.90;;;;;;5021042;28;20698;-69
2022/03/19 06:16:56;;;;;;;13.60;4.15;;;2.00;99.90;;;;;;5020823;28;20208;-70
2022/03/19 06:19:24;;;;;;;7.93;3.95;;;2.00;99.90;;;;;;5020989;28;20767;-69
2022/03/19 06:21:54;;;;;;;15.50;5.47;;;2.10;99.90;;;;;;5019369;28;20205;-69
2022/03/19 06:24:23;;;;;;;12.15;3.75;;;2.10;99.90;;;;;;5020143;28;20222;-70
2022/03/19 06:26:51;;;;;;;9.35;4.22;;;2.20;99.90;;;;;;5020785;28;20214;-69
2022/03/19 06:29:19;;;;;;;15.68;4.65;;;2.30;99.90;;;;;;5021155;28;20253;-69
2022/03/19 06:31:47;;;;;;;11.50;3.25;;;2.30;99.90;;;;;;5020501;28;20210;-70
2022/03/19 06:34:15;;;;;;;13.57;4.68;;;2.40;99.90;;;;;;5020375;28;20210;-69
2022/03/19 06:39:29;;;;;;;11.02;3.15;;;2.60;99.90;;;;;;5024615;28;20213;-69
2022/03/19 06:41:57;;;;;;;8.18;3.42;;;2.70;99.90;;;;;;5020205;28;20202;-69
2022/03/19 06:44:25;;;;;;;10.18;3.70;;;2.80;99.90;;;;;;5020202;28;20228;-69
2022/03/19 06:46:53;;;;;;;10.00;3.17;;;2.90;99.90;;;;;;5018823;28;20210;-66
2022/03/19 06:49:21;;;;;;;10.45;3.15;;;3.00;99.90;;;;;;5019929;28;20202;-71
2022/03/19 06:51:49;;;;;;;14.30;3.60;;;3.10;99.90;;;;;;5019677;28;20208;-70
2022/03/19 06:54:16;;;;;;;9.60;3.33;;;3.20;99.90;;;;;;5019910;28;20549;-70
2022/03/19 06:56:46;;;;;;;10.13;3.13;;;3.30;99.90;;;;;;5017838;28;20214;-69
2022/03/19 06:59:13;;;;;;;8.77;2.80;;;3.30;99.90;;;;;;5020151;28;20856;-69
2022/03/19 07:01:41;;;;;;;12.20;3.22;;;3.40;99.90;;;;;;5019898;28;20203;-69
2022/03/19 07:04:09;;;;;;;9.82;3.25;;;3.50;99.90;;;;;;5019198;28;20229;-69
2022/03/19 07:06:37;;;;;;;10.25;3.63;;;3.60;99.90;;;;;;5020201;28;20818;-69
2022/03/19 07:09:25;;;;;;;9.57;2.95;;;3.70;99.90;;;;;;5018202;28;20460;-69
2022/03/19 07:11:54;;;;;;;10.05;2.83;;;3.70;99.90;;;;;;5019335;28;20202;-67
2022/03/19 07:14:22;;;;;;;6.03;2.63;;;3.80;99.90;;;;;;5018660;28;20285;-68
2022/03/19 07:16:51;;;;;;;7.90;3.45;;;3.90;99.90;;;;;;5019231;28;20660;-68
2022/03/19 07:19:19;;;;;;;16.80;3.35;;;4.00;99.90;;;;;;5019053;28;20206;-67
2022/03/19 07:21:47;;;;;;;11.90;3.55;;;4.00;99.90;;;;;;5020275;28;20207;-68
2022/03/19 07:24:15;;;;;;;9.55;2.83;;;4.10;99.90;;;;;;5019390;28;20879;-70
2022/03/19 07:26:42;;;;;;;10.80;3.40;;;4.20;99.90;;;;;;5019242;28;20850;-64
2022/03/19 07:29:18;;;;;;;9.63;3.05;;;4.30;99.90;;;;;;5019809;28;20195;-64
2022/03/19 07:31:58;;;;;;;9.55;4.13;;;4.30;99.90;;;;;;5013963;28;20190;-69
2022/03/19 07:34:26;;;;;;;9.10;3.13;;;4.40;99.90;;;;;;5018585;28;20202;-70
2022/03/19 07:36:54;;;;;;;6.50;2.80;;;4.60;99.90;;;;;;5018375;28;20201;-71
2022/03/19 07:39:24;;;;;;;6.43;3.50;;;4.70;99.90;;;;;;5016013;28;20205;-69
2022/03/19 07:41:55;;;;;;;7.20;3.20;;;4.80;99.90;;;;;;5019061;28;20847;-70
2022/03/19 07:44:24;;;;;;;10.73;2.50;;;4.90;99.90;;;;;;5020441;28;20746;-69
2022/03/19 07:46:52;;;;;;;8.43;2.83;;;5.00;99.90;;;;;;5020501;28;20205;-71
2022/03/19 07:49:20;;;;;;;9.13;3.08;;;5.10;99.90;;;;;;5018549;28;20205;-68
2022/03/19 07:51:54;;;;;;;8.15;2.85;;;5.20;99.90;;;;;;5019241;28;20301;-70
2022/03/19 07:54:23;;;;;;;12.18;3.28;;;5.20;99.90;;;;;;5015296;28;20760;-70
2022/03/19 07:56:51;;;;;;;6.90;2.53;;;5.30;99.90;;;;;;5014867;28;20860;-70
2022/03/19 07:59:21;;;;;;;10.95;3.70;;;5.40;99.90;;;;;;5018833;28;20202;-71
2022/03/19 08:01:51;;;;;;;9.90;3.15;;;5.50;99.90;;;;;;5018161;28;20194;-70
2022/03/19 08:04:19;;;;;;;8.52;2.92;;;5.50;99.90;;;;;;5018525;28;20753;-69
2022/03/19 08:06:49;;;;;;;11.02;2.63;;;5.50;99.90;;;;;;5010691;28;20203;-70
2022/03/19 08:09:17;;;;;;;6.03;2.33;;;5.60;99.90;;;;;;5018986;28;20206;-70
2022/03/19 08:11:45;;;;;;;7.47;2.70;;;5.60;99.90;;;;;;5019049;28;20456;-70
2022/03/19 08:14:14;;;;;;;6.18;2.80;;;5.70;99.90;;;;;;5019370;28;20203;-68
2022/03/19 08:16:44;;;;;;;4.63;2.78;;;5.80;99.90;;;;;;5019258;28;20846;-70
2022/03/19 08:19:14;;;;;;;7.45;2.50;;;5.80;99.90;;;;;;5019646;28;20603;-71
2022/03/19 08:21:44;;;;;;;6.45;2.50;;;5.80;99.90;;;;;;5019240;28;20256;-69
2022/03/19 08:24:12;;;;;;;9.05;3.17;;;5.90;99.90;;;;;;5020043;28;20234;-79
2022/03/19 08:26:40;;;;;;;7.53;2.78;;;6.10;99.90;;;;;;5014645;28;20190;-68
2022/03/19 08:29:08;;;;;;;8.98;2.42;;;6.10;99.90;;;;;;5018564;28;20201;-70
2022/03/19 08:31:36;;;;;;;5.55;2.03;;;6.20;99.90;;;;;;5019678;28;20206;-68
2022/03/19 08:34:04;;;;;;;13.30;3.20;;;6.20;99.90;;;;;;5009275;28;20222;-67
2022/03/19 08:36:34;;;;;;;3.95;2.22;;;6.30;99.90;;;;;;5018691;28;20202;-68
2022/03/19 08:41:47;;;;;;;7.50;2.53;;;6.30;99.90;;;;;;5016640;28;20829;-67
2022/03/19 08:44:15;;;;;;;6.20;2.78;;;6.40;99.90;;;;;;5016919;28;20755;-68
2022/03/19 08:46:43;;;;;;;8.52;2.47;;;6.40;99.90;;;;;;5017617;28;20218;-68
2022/03/19 08:49:10;;;;;;;6.30;2.70;;;6.60;99.90;;;;;;5012548;28;20217;-67
2022/03/19 08:51:40;;;;;;;3.40;2.33;;;6.70;99.90;;;;;;5012437;28;20347;-67
2022/03/19 08:54:09;;;;;;;6.97;1.83;;;6.70;99.90;;;;;;5017835;28;20222;-67
2022/03/19 08:56:37;;;;;;;8.65;2.40;;;6.80;99.90;;;;;;5017747;28;20918;-66
2022/03/19 08:59:05;;;;;;;4.35;1.95;;;6.90;99.90;;;;;;5017576;28;20202;-68
2022/03/19 09:01:34;;;;;;;12.93;3.25;;;7.00;99.90;;;;;;5017823;28;20760;-68
2022/03/19 09:04:02;;;;;;;11.55;2.67;;;7.10;99.90;;;;;;5015194;28;20293;-66
2022/03/19 09:06:30;;;;;;;8.65;2.10;;;7.10;99.90;;;;;;5017727;28;20230;-68
2022/03/19 09:09:02;;;;;;;8.85;2.45;;;7.20;99.90;;;;;;5013546;28;20225;-65
2022/03/19 09:11:30;;;;;;;5.32;2.10;;;7.20;99.90;;;;;;5004258;28;20227;-65
2022/03/19 09:13:58;;;;;;;6.80;2.75;;;7.30;99.90;;;;;;5017631;28;20201;-68
2022/03/19 09:16:29;;;;;;;5.97;1.75;;;7.40;99.90;;;;;;5091626;22;20476;-81
2022/03/19 09:18:57;;;;;;;5.78;1.70;;;7.40;99.90;;;;;;5092781;28;20276;-82
2022/03/19 09:21:25;;;;;;;6.47;2.00;;;7.50;99.90;;;;;;5093038;28;20267;-81
2022/03/19 09:23:53;;;;;;;6.75;2.22;;;7.60;99.90;;;;;;5104241;28;20204;-82
2022/03/19 09:26:23;;;;;;;6.75;2.55;;;7.60;99.90;;;;;;5104655;28;20401;-82
2022/03/19 09:28:51;;;;;;;7.72;1.70;;;7.70;99.90;;;;;;5103898;28;20402;-83
2022/03/19 09:31:21;;;;;;;8.50;2.35;;;7.80;99.90;;;;;;5104663;28;20821;-82
2022/03/19 09:33:49;;;;;;;6.63;1.90;;;7.90;99.90;;;;;;5108491;28;20251;-81
2022/03/19 09:36:17;;;;;;;9.40;2.05;;;8.00;99.90;;;;;;5111834;28;20294;-82
2022/03/19 09:38:46;;;;;;;7.05;1.98;;;8.10;99.90;;;;;;5101734;28;20795;-82
2022/03/19 09:41:15;;;;;;;5.47;2.97;;;8.20;99.90;;;;;;5094455;28;20315;-81
2022/03/19 09:43:49;;;;;;;4.32;1.73;;;8.30;99.90;;;;;;5098590;28;20199;-81
2022/03/19 09:46:20;;;;;;;3.92;2.05;;;8.40;99.90;;;;;;5104276;28;20219;-83
2022/03/19 09:48:53;;;;;;;3.10;1.20;;;8.50;99.90;;;;;;5104265;28;20192;-84
2022/03/19 09:51:27;;;;;;;2.78;1.60;;;8.60;99.90;;;;;;5104285;28;20203;-85
2022/03/19 09:53:56;;;;;;;7.25;2.67;;;8.70;99.90;;;;;;5102465;28;20767;-82
2022/03/19 09:56:33;;;;;;;8.25;2.08;;;8.70;99.90;;;;;;5093809;28;20760;-83
2022/03/19 09:59:02;;;;;;;2.42;1.27;;;8.80;99.90;;;;;;5092667;28;20283;-83
2022/03/19 10:01:31;;;;;;;3.30;1.80;;;8.90;99.90;;;;;;5107897;28;20214;-84
2022/03/19 10:04:07;;;;;;;4.28;1.88;;;9.00;99.90;;;;;;5106562;28;20239;-82
2022/03/19 10:09:33;;;;;;;5.63;1.48;;;9.00;99.90;;;;;;5107006;28;20291;-82
2022/03/19 10:12:03;;;;;;;2.67;1.20;;;9.10;99.90;;;;;;5106276;28;20200;-82
2022/03/19 10:14:33;;;;;;;4.03;1.70;;;9.20;99.90;;;;;;5107908;28;20719;-82
2022/03/19 10:17:02;;;;;;;2.35;1.42;;;9.10;99.90;;;;;;5106394;28;20234;-80
2022/03/19 10:19:30;;;;;;;3.72;1.58;;;9.10;99.90;;;;;;5106563;28;20211;-79
2022/03/19 10:22:08;;;;;;;3.45;1.40;;;9.10;99.90;;;;;;5107999;28;20200;-81
2022/03/19 10:24:38;;;;;;;4.40;1.90;;;9.20;99.90;;;;;;5106706;28;20190;-81
2022/03/19 10:27:17;;;;;;;2.55;1.20;;;9.10;99.90;;;;;;5106958;28;20357;-80
2022/03/19 10:29:46;;;;;;;4.53;1.65;;;9.20;99.90;;;;;;5107966;28;20286;-81
2022/03/19 10:32:14;;;;;;;6.43;2.17;;;9.20;99.90;;;;;;5108438;28;20223;-82
2022/03/19 10:34:44;;;;;;;4.40;1.50;;;9.30;99.90;;;;;;5106781;28;20199;-81
2022/03/19 10:37:30;;;;;;;5.43;1.40;;;9.30;99.90;;;;;;5108086;28;20227;-81
2022/03/19 10:39:58;;;;;;;2.03;1.30;;;9.30;99.90;;;;;;5116979;28;20188;-80
2022/03/19 10:42:35;;;;;;;3.28;1.60;;;9.30;99.90;;;;;;5115242;28;20327;-81
2022/03/19 10:45:05;;;;;;;3.05;1.13;;;9.40;99.90;;;;;;5105297;28;20252;-81
2022/03/19 10:47:40;;;;;;;3.63;1.50;;;9.40;99.90;;;;;;5104300;28;20295;-82
2022/03/19 10:50:09;;;;;;;1.25;1.08;;;9.40;99.90;;;;;;5106481;28;20211;-81
2022/03/19 10:52:37;;;;;;;1.50;0.82;;;9.50;99.90;;;;;;5107002;28;20207;-81
2022/03/19 10:55:08;;;;;;;3.95;0.80;;;9.50;99.90;;;;;;5106717;28;20207;-81
2022/03/19 10:57:36;;;;;;;1.30;0.95;;;9.60;99.90;;;;;;5107075;28;20279;-80
2022/03/19 11:00:07;;;;;;;2.55;1.33;;;9.60;99.90;;;;;;5107513;28;20195;-82
2022/03/19 11:02:39;;;;;;;4.68;1.13;;;9.60;99.90;;;;;;5107470;28;20190;-82
2022/03/19 11:05:11;;;;;;;1.30;0.85;;;9.60;99.90;;;;;;5105867;28;20196;-82
2022/03/19 11:07:42;;;;;;;1.48;1.00;;;9.60;99.90;;;;;;5104802;28;20437;-83
2022/03/19 11:10:12;;;;;;;1.92;1.50;;;9.70;99.90;;;;;;5105280;28;20212;-82
2022/03/19 11:12:43;;;;;;;1.65;1.50;;;9.70;99.90;;;;;;5106669;28;20298;-82
2022/03/19 11:15:14;;;;;;;3.35;1.08;;;9.70;99.90;;;;;;5106872;28;20329;-82
2022/03/19 11:17:42;;;;;;;1.15;0.80;;;9.70;99.90;;;;;;5110367;28;20267;-81
2022/03/19 11:20:11;;;;;;;3.00;0.88;;;9.70;99.90;;;;;;5110735;28;20200;-82
2022/03/19 11:22:43;;;;;;;1.55;1.10;;;9.80;99.90;;;;;;5112893;28;20275;-82
2022/03/19 11:25:23;;;;;;;3.33;1.55;;;9.80;99.90;;;;;;5119223;28;20207;-81
2022/03/19 11:27:53;;;;;;;2.05;1.20;;;9.80;99.90;;;;;;5117169;28;20215;-82
2022/03/19 11:30:25;;;;;;;2.67;1.20;;;9.80;99.90;;;;;;5080682;28;20292;-82
2022/03/19 11:33:16;;;;;;;1.70;1.60;;;9.80;99.90;;;;;;5104666;28;20287;-82
2022/03/19 11:35:47;;;;;;;3.33;1.27;;;9.90;99.90;;;;;;5089175;28;20275;-82
2022/03/19 11:38:20;;;;;;;1.40;1.23;;;9.90;99.90;;;;;;5099648;28;20200;-83
2022/03/19 11:40:55;;;;;;;4.20;2.00;;;10.00;99.90;;;;;;5091858;28;20255;-83
2022/03/19 11:43:32;;;;;;;5.07;1.15;;;10.00;99.90;;;;;;5097921;28;20192;-80
2022/03/19 11:46:03;;;;;;;1.80;1.30;;;10.10;99.90;;;;;;5107907;28;20324;-82
2022/03/19 11:48:51;;;;;;;2.25;1.38;;;10.10;99.90;;;;;;5102660;28;20847;-79
2022/03/19 11:51:40;;;;;;;3.70;1.80;;;10.10;99.90;;;;;;5095477;28;20200;-81
2022/03/19 11:54:16;;;;;;;2.88;2.67;;;10.10;99.90;;;;;;5100962;28;20222;-81
2022/03/19 11:57:06;;;;;;;2.08;1.60;;;10.10;99.90;;;;;;5093890;28;20218;-81
2022/03/19 11:59:58;;;;;;;3.28;1.90;;;10.10;99.90;;;;;;5043068;28;20212;-81
2022/03/19 12:02:32;;;;;;;5.43;2.13;;;10.10;99.90;;;;;;5039297;28;20201;-83
2022/03/19 12:05:22;;;;;;;6.18;1.60;;;10.00;99.90;;;;;;5041091;28;20197;-82
2022/03/19 12:07:57;;;;;;;2.53;1.50;;;10.00;99.90;;;;;;5038625;28;20300;-81
2022/03/19 12:10:25;;;;;;;1.92;1.33;;;10.00;99.90;;;;;;5040628;28;20217;-82
2022/03/19 12:12:59;;;;;;;5.32;1.55;;;10.10;99.90;;;;;;5034761;28;20210;-83
2022/03/19 12:15:48;;;;;;;3.00;1.65;;;10.10;99.90;;;;;;5035463;28;20201;-83
2022/03/19 12:18:32;;;;;;;2.85;1.65;;;10.10;99.90;;;;;;5034624;28;20738;-84
2022/03/19 12:21:03;;;;;;;3.33;1.40;;;10.20;99.90;;;;;;5037736;28;20311;-83
2022/03/19 12:23:41;;;;;;;5.05;2.95;;;10.30;99.90;;;;;;5056266;28;20227;-81
2022/03/19 12:26:16;;;;;;;6.72;2.60;;;10.30;99.90;;;;;;5098859;28;20277;-83
2022/03/19 12:28:57;;;;;;;3.67;1.40;;;10.20;99.90;;;;;;5097925;28;20268;-80
2022/03/19 12:31:33;;;;;;;3.75;1.70;;;10.20;99.90;;;;;;5098276;28;20820;-82
2022/03/19 12:34:14;;;;;;;2.47;2.30;;;10.30;99.90;;;;;;5098373;28;20320;-83
2022/03/19 12:36:42;;;;;;;2.50;1.77;;;10.40;99.90;;;;;;5096835;28;20239;-83
2022/03/19 12:39:10;;;;;;;4.20;2.20;;;10.40;99.90;;;;;;5103962;28;20263;-82
2022/03/19 12:41:40;;;;;;;5.75;2.08;;;10.40;99.90;;;;;;5103466;28;20602;-82
2022/03/19 12:44:36;;;;;;;2.65;2.45;;;10.30;99.90;;;;;;5095507;27;20743;-82
2022/03/19 12:47:06;;;;;;;3.35;2.10;;;10.30;99.90;;;;;;5100840;28;20235;-83
2022/03/19 12:49:36;;;;;;;3.92;2.80;;;10.40;99.90;;;;;;5104571;28;20260;-83
2022/03/19 12:52:08;;;;;;;1.40;1.27;;;10.50;99.90;;;;;;5101912;28;20293;-82
2022/03/19 12:55:10;;;;;;;2.50;2.00;;;10.80;99.90;;;;;;5086024;28;20431;-83
2022/03/19 12:57:42;;;;;;;2.97;2.10;;;11.00;99.90;;;;;;5088912;28;20521;-83
2022/03/19 13:00:11;;;;;;;2.53;1.80;;;11.20;99.90;;;;;;5097451;28;20454;-84
2022/03/19 13:02:49;;;;;;;3.00;2.07;;;11.30;99.90;;;;;;5093242;28;20453;-84
2022/03/19 13:05:26;;;;;;;2.30;1.90;;;11.10;99.90;;;;;;5094595;28;20506;-83
2022/03/19 13:08:49;;;;;;;6.00;2.60;;;10.90;99.90;;;;;;5095875;28;20466;-82
2022/03/19 13:12:00;;;;;;;3.38;1.98;;;10.80;99.90;;;;;;5094728;28;20510;-82
2022/03/19 13:15:13;;;;;;;4.70;2.05;;;10.70;99.90;;;;;;5092439;28;20191;-83
2022/03/19 13:17:58;;;;;;;2.22;2.03;;;10.80;99.90;;;;;;5090478;28;20699;-83
2022/03/19 13:21:35;;;;;;;1.98;1.65;;;10.70;99.90;;;;;;5087572;28;20211;-82
2022/03/19 13:32:36;;;;;;;7.03;2.50;;;10.90;99.90;;;;;;4939144;28;20451;-81